Time;durP1;ratioP1;P1;durP2;ratioP2;P2;SDS_P1;SDS_P2;PMS_P1;PMS_P2;Temp;Humidity;BMP_temperature;BMP_pressure;BME280_temperature;BME280_humidity;BME280_pressure;Samples;Min_cycle;Max_cycle;Signal;HPM_P1;HPM_P2
2022/06/06 03:01:52;;;;;;;44.90;42.10;;;11.80;99.90;;;;;;5292320;23;20241;-72
2022/06/06 03:04:19;;;;;;;33.23;30.63;;;11.80;99.90;;;;;;4972799;28;20204;-73
2022/06/06 03:06:55;;;;;;;30.87;17.97;;;11.80;99.90;;;;;;4970811;28;20186;-73
2022/06/06 03:09:59;;;;;;;34.60;25.87;;;11.80;99.90;;;;;;4976422;28;20222;-74
2022/06/06 03:12:25;;;;;;;24.70;22.97;;;11.80;99.90;;;;;;4975937;28;20196;-72
2022/06/06 03:15:00;;;;;;;20.00;18.67;;;11.80;99.90;;;;;;5009752;23;20240;-76
2022/06/06 03:23:25;;;;;;;100.00;95.07;;;11.70;99.90;;;;;;4990161;28;20198;-75
2022/06/06 03:26:06;;;;;;;56.47;53.37;;;11.70;99.90;;;;;;4972673;28;20194;-76
2022/06/06 03:28:44;;;;;;;37.70;35.40;;;11.60;99.90;;;;;;4972047;28;20182;-74
2022/06/06 03:31:48;;;;;;;54.40;51.70;;;11.70;99.90;;;;;;4970977;28;20683;-75
2022/06/06 03:34:32;;;;;;;78.70;74.67;;;11.80;99.90;;;;;;4977197;28;20674;-76
2022/06/06 03:37:07;;;;;;;83.07;78.43;;;11.80;99.90;;;;;;4991656;28;20208;-76
2022/06/06 03:40:13;;;;;;;41.97;39.83;;;11.80;99.90;;;;;;4991447;28;20665;-74
2022/06/06 03:42:54;;;;;;;85.13;80.77;;;11.80;99.90;;;;;;4971155;28;20855;-79
2022/06/06 03:45:50;;;;;;;80.13;76.23;;;11.90;99.90;;;;;;4986729;28;20214;-76
2022/06/06 03:48:35;;;;;;;65.40;62.10;;;11.90;99.90;;;;;;4988367;28;20295;-76
2022/06/06 03:51:03;;;;;;;52.70;49.77;;;12.00;99.90;;;;;;4991610;28;20176;-76
2022/06/06 03:53:40;;;;;;;48.10;45.30;;;12.20;99.90;;;;;;4990425;28;20210;-76
2022/06/06 03:56:41;;;;;;;92.17;86.77;;;12.30;99.90;;;;;;4988509;28;20181;-74
2022/06/06 03:59:08;;;;;;;24.03;22.20;;;12.40;99.90;;;;;;4990976;28;20186;-76
2022/06/06 04:01:39;;;;;;;38.23;36.27;;;12.50;99.90;;;;;;4990165;28;20187;-76
2022/06/06 04:04:05;;;;;;;35.93;33.13;;;12.60;99.90;;;;;;4991905;28;20223;-76
2022/06/06 04:06:35;;;;;;;79.00;75.03;;;12.60;99.90;;;;;;4991720;28;20690;-76
2022/06/06 04:09:01;;;;;;;38.17;35.80;;;12.70;99.90;;;;;;4990574;28;20186;-75
2022/06/06 04:11:29;;;;;;;16.10;15.30;;;12.70;99.90;;;;;;4991650;28;20188;-76
2022/06/06 04:14:15;;;;;;;11.87;11.17;;;12.80;99.90;;;;;;4991394;28;20264;-76
2022/06/06 04:17:04;;;;;;;21.83;16.17;;;12.80;99.90;;;;;;4975094;28;20291;-76
2022/06/06 04:19:38;;;;;;;16.27;15.37;;;12.80;99.90;;;;;;4990060;28;20196;-74
2022/06/06 04:22:16;;;;;;;13.13;12.47;;;12.80;99.90;;;;;;4990600;28;20187;-76
2022/06/06 04:25:04;;;;;;;16.67;15.57;;;12.80;99.90;;;;;;4977708;28;20254;-76
2022/06/06 04:28:02;;;;;;;15.93;14.77;;;12.80;99.90;;;;;;4971543;28;20740;-74
2022/06/06 04:30:36;;;;;;;15.40;14.07;;;12.80;99.90;;;;;;4972204;28;20185;-76
2022/06/06 04:33:18;;;;;;;13.57;12.53;;;12.70;99.90;;;;;;4971912;28;20203;-75
2022/06/06 04:36:06;;;;;;;9.37;8.60;;;12.70;99.90;;;;;;4974219;28;20173;-75
2022/06/06 04:38:41;;;;;;;11.17;10.07;;;12.80;99.90;;;;;;4975013;28;20184;-75
2022/06/06 04:41:34;;;;;;;10.77;10.17;;;12.90;99.90;;;;;;4974845;28;20183;-75
2022/06/06 04:44:22;;;;;;;13.37;12.07;;;12.90;99.90;;;;;;4974505;28;20252;-76
2022/06/06 04:47:18;;;;;;;12.90;12.10;;;13.00;99.90;;;;;;4974636;28;20187;-76
2022/06/06 04:49:46;;;;;;;16.67;15.77;;;13.10;99.90;;;;;;4967125;28;20576;-76
2022/06/06 04:52:13;;;;;;;17.50;16.20;;;13.30;99.90;;;;;;4974842;28;20212;-76
2022/06/06 04:54:42;;;;;;;14.73;13.53;;;13.50;99.90;;;;;;4973324;28;20218;-76
2022/06/06 04:57:09;;;;;;;10.37;9.57;;;13.70;99.90;;;;;;4973692;28;20185;-76
2022/06/06 04:59:36;;;;;;;18.07;16.80;;;13.80;99.90;;;;;;4973547;28;20189;-75
2022/06/06 05:02:04;;;;;;;17.90;16.87;;;14.00;99.90;;;;;;4978667;28;20267;-76
2022/06/06 05:04:30;;;;;;;38.40;36.20;;;14.00;99.90;;;;;;4993088;28;20588;-75
2022/06/06 05:07:20;;;;;;;53.13;50.40;;;14.00;99.90;;;;;;4978552;28;20180;-75
2022/06/06 05:10:09;;;;;;;38.07;35.67;;;13.90;99.90;;;;;;4973261;28;20177;-75
2022/06/06 05:12:47;;;;;;;22.87;21.13;;;13.90;99.90;;;;;;4974265;28;20228;-76
2022/06/06 05:15:31;;;;;;;40.67;38.47;;;14.20;99.90;;;;;;4972662;28;20228;-76
2022/06/06 05:18:13;;;;;;;62.67;59.10;;;14.30;99.90;;;;;;4976199;28;20564;-76
2022/06/06 05:20:38;;;;;;;55.97;52.87;;;14.60;99.90;;;;;;4973184;28;20188;-76
2022/06/06 05:23:31;;;;;;;26.47;24.97;;;14.90;99.90;;;;;;4973131;28;20187;-76
2022/06/06 05:26:21;;;;;;;32.63;30.80;;;15.30;99.90;;;;;;4973331;28;20181;-76
2022/06/06 05:29:08;;;;;;;39.47;37.10;;;15.60;99.90;;;;;;4973080;28;20254;-75
2022/06/06 05:31:40;;;;;;;37.83;35.57;;;16.40;99.90;;;;;;4987352;28;20275;-76
2022/06/06 05:34:20;;;;;;;47.37;44.83;;;17.00;99.90;;;;;;4991580;28;20204;-75
2022/06/06 05:36:46;;;;;;;99.63;94.63;;;17.50;99.90;;;;;;4976383;28;20657;-76
2022/06/06 05:40:07;;;;;;;54.70;51.70;;;17.60;99.90;;;;;;4973021;28;20192;-77
2022/06/06 05:42:50;;;;;;;23.83;22.73;;;18.10;99.90;;;;;;4944851;28;20665;-77
2022/06/06 05:45:28;;;;;;;24.27;23.00;;;18.50;99.90;;;;;;4984475;28;20212;-74
2022/06/06 05:48:17;;;;;;;60.73;57.73;;;18.70;99.90;;;;;;4992386;28;20235;-76
2022/06/06 05:50:59;;;;;;;83.90;79.40;;;18.40;99.90;;;;;;4975613;28;20243;-75
2022/06/06 05:53:50;;;;;;;105.13;99.03;;;18.10;99.90;;;;;;4970782;28;20215;-74
2022/06/06 05:56:19;;;;;;;50.33;47.60;;;17.90;99.90;;;;;;4972801;28;20270;-75
2022/06/06 05:59:15;;;;;;;95.27;90.37;;;18.00;99.90;;;;;;4977979;28;20195;-74
2022/06/06 06:01:57;;;;;;;143.17;135.87;;;18.20;99.90;;;;;;4990295;28;20188;-75
2022/06/06 06:04:51;;;;;;;55.37;52.57;;;18.50;99.90;;;;;;4990988;28;20350;-75
2022/06/06 06:07:50;;;;;;;52.03;49.53;;;19.00;99.90;;;;;;4975619;28;20555;-75
2022/06/06 06:10:26;;;;;;;30.70;29.10;;;19.40;99.90;;;;;;4930615;28;20193;-76
2022/06/06 06:15:43;;;;;;;60.67;57.67;;;19.60;99.90;;;;;;5074988;28;20552;-76
2022/06/06 06:18:36;;;;;;;41.73;39.57;;;19.50;99.90;;;;;;5076650;28;20188;-76
2022/06/06 06:21:17;;;;;;;56.10;53.33;;;19.50;99.90;;;;;;5073007;28;20216;-77
2022/06/06 06:23:49;;;;;;;57.73;54.90;;;19.90;99.90;;;;;;5070458;28;20220;-78
2022/06/06 06:26:16;;;;;;;67.40;63.90;;;20.10;99.90;;;;;;5071960;28;20830;-77
2022/06/06 06:28:45;;;;;;;35.90;34.00;;;20.20;99.90;;;;;;5074246;28;20185;-76
2022/06/06 06:31:20;;;;;;;73.33;69.80;;;20.30;99.90;;;;;;5075950;28;20326;-75
2022/06/06 06:34:05;;;;;;;19.03;18.03;;;20.40;99.90;;;;;;5076914;28;20209;-77
2022/06/06 06:36:36;;;;;;;14.47;13.77;;;20.50;99.90;;;;;;5083060;28;20271;-77
2022/06/06 06:39:47;;;;;;;9.13;8.30;;;20.70;99.90;;;;;;5073948;28;20190;-76
2022/06/06 06:42:34;;;;;;;10.13;5.80;;;20.90;99.90;;;;;;5058196;28;20190;-77
2022/06/06 06:45:08;;;;;;;6.70;6.15;;;20.90;99.90;;;;;;5047736;28;20226;-77
2022/06/06 06:47:35;;;;;;;9.23;8.73;;;21.10;99.90;;;;;;5047373;28;20186;-77
2022/06/06 06:50:07;;;;;;;6.93;6.43;;;21.60;99.90;;;;;;5046678;28;20638;-77
2022/06/06 06:52:58;;;;;;;14.07;13.32;;;22.10;99.90;;;;;;5046362;28;20183;-76
2022/06/06 06:56:06;;;;;;;34.55;32.25;;;22.30;99.90;;;;;;5050139;28;20213;-76
2022/06/06 06:58:40;;;;;;;51.35;48.63;;;22.30;99.90;;;;;;5049928;28;20649;-76
2022/06/06 07:01:12;;;;;;;36.05;34.20;;;22.40;99.90;;;;;;5050571;28;20672;-74
2022/06/06 07:09:59;;;;;;;7.40;7.00;;;23.20;99.90;;;;;;5063108;28;20557;-77
2022/06/06 07:12:31;;;;;;;7.07;6.68;;;23.00;99.90;;;;;;5058166;28;20274;-76
2022/06/06 07:15:03;;;;;;;8.80;7.93;;;23.10;99.90;;;;;;5047216;28;20222;-77
2022/06/06 07:17:34;;;;;;;7.47;6.93;;;22.70;99.90;;;;;;5061316;28;20183;-76
2022/06/06 07:20:05;;;;;;;7.78;7.43;;;22.90;99.90;;;;;;5045933;28;20251;-76
2022/06/06 07:25:23;;;;;;;11.48;10.73;;;23.60;99.90;;;;;;5057102;28;20202;-76
2022/06/06 07:27:49;;;;;;;11.15;10.25;;;24.10;99.90;;;;;;5055313;28;20179;-75
2022/06/06 07:30:16;;;;;;;21.83;20.42;;;24.60;99.90;;;;;;5054200;28;20293;-75
2022/06/06 07:33:20;;;;;;;32.85;30.95;;;25.10;99.90;;;;;;5054061;28;20265;-75
2022/06/06 07:36:14;;;;;;;47.08;44.67;;;25.20;99.90;;;;;;5053873;28;20201;-76
2022/06/06 07:39:06;;;;;;;51.35;48.72;;;24.90;99.90;;;;;;5045264;28;20233;-76
2022/06/06 07:41:44;;;;;;;37.30;35.45;;;24.80;99.90;;;;;;5032706;28;20186;-77
2022/06/06 07:44:32;;;;;;;35.28;33.15;;;24.80;99.90;;;;;;5049676;28;20285;-75
2022/06/06 07:47:28;;;;;;;20.38;19.38;;;25.40;99.90;;;;;;5032578;28;20240;-76
2022/06/06 07:50:25;;;;;;;40.20;37.92;;;25.40;99.90;;;;;;5033992;28;20261;-76
2022/06/06 07:53:03;;;;;;;9.05;8.55;;;25.40;99.90;;;;;;5033102;28;20191;-76
2022/06/06 07:55:34;;;;;;;9.32;8.73;;;25.50;99.90;;;;;;5033753;28;20268;-76
2022/06/06 07:58:12;;;;;;;6.65;6.20;;;25.70;99.90;;;;;;5050501;28;20524;-76
2022/06/06 08:00:39;;;;;;;7.35;6.85;;;26.10;99.90;;;;;;5053403;28;20182;-76
2022/06/06 08:03:33;;;;;;;17.52;16.60;;;26.50;99.90;;;;;;5053359;28;20182;-76
2022/06/06 08:06:20;;;;;;;19.13;17.92;;;26.80;99.90;;;;;;5054750;28;20182;-77
2022/06/06 08:08:56;;;;;;;14.13;13.43;;;26.80;99.90;;;;;;5052982;28;20228;-76
2022/06/06 08:11:44;;;;;;;6.50;6.03;;;26.90;99.90;;;;;;5042041;28;20206;-76
2022/06/06 08:14:38;;;;;;;5.38;4.85;;;27.00;99.90;;;;;;5033206;28;20236;-77
2022/06/06 08:17:25;;;;;;;4.60;4.20;;;27.20;99.90;;;;;;5033070;28;20186;-77
2022/06/06 08:20:13;;;;;;;6.60;5.50;;;27.30;99.90;;;;;;5032165;28;20179;-76
2022/06/06 08:22:42;;;;;;;7.60;7.10;;;27.40;99.90;;;;;;5033200;28;20178;-77
2022/06/06 08:25:12;;;;;;;5.63;5.20;;;27.30;99.90;;;;;;5038925;28;20221;-77
2022/06/06 08:27:44;;;;;;;5.20;4.90;;;27.20;99.90;;;;;;5035910;28;20195;-77
2022/06/06 08:30:11;;;;;;;6.10;5.70;;;27.10;99.90;;;;;;5037057;28;20183;-77
2022/06/06 08:32:36;;;;;;;7.30;6.57;;;27.20;99.90;;;;;;5033075;28;20219;-77
2022/06/06 08:35:02;;;;;;;6.13;5.80;;;27.10;99.90;;;;;;5032883;28;20254;-77
2022/06/06 08:37:47;;;;;;;8.50;8.10;;;26.60;99.90;;;;;;5030769;28;20175;-77
2022/06/06 08:40:32;;;;;;;5.20;4.70;;;26.20;99.90;;;;;;5049962;28;20174;-75
2022/06/06 08:43:21;;;;;;;7.57;6.88;;;25.90;99.90;;;;;;5044479;28;20607;-77
2022/06/06 08:46:33;;;;;;;18.42;17.45;;;25.50;99.90;;;;;;5032813;28;20179;-77
2022/06/06 08:50:44;;;;;;;14.73;13.82;;;24.60;99.90;;;;;;5032387;28;20179;-77
2022/06/06 08:52:29;;;;;;;9.90;9.23;;;24.10;99.90;;;;;;5032526;28;20205;-76
2022/06/06 08:55:16;;;;;;;15.77;14.90;;;23.90;99.90;;;;;;5058067;28;20245;-77
2022/06/06 08:57:50;;;;;;;12.88;11.98;;;24.40;99.90;;;;;;5052123;28;20558;-76
2022/06/06 09:00:30;;;;;;;12.40;11.80;;;25.30;99.90;;;;;;5051233;28;20186;-76
2022/06/06 09:03:28;;;;;;;12.80;11.95;;;26.20;99.90;;;;;;5052150;28;20649;-77
2022/06/06 09:06:35;;;;;;;6.00;5.70;;;27.10;99.90;;;;;;5053225;28;20632;-76
2022/06/06 09:09:18;;;;;;;4.80;4.43;;;27.80;99.90;;;;;;5045704;28;20191;-77
2022/06/06 09:12:02;;;;;;;6.93;6.32;;;28.00;99.90;;;;;;5034479;28;20193;-77
2022/06/06 09:15:05;;;;;;;7.75;7.03;;;27.90;99.90;;;;;;5032302;28;20206;-76
2022/06/06 09:17:56;;;;;;;6.47;6.13;;;27.30;99.90;;;;;;5031874;28;20224;-77
2022/06/06 09:20:59;;;;;;;8.88;8.48;;;26.90;99.90;;;;;;5034705;28;20194;-76
2022/06/06 09:23:53;;;;;;;6.53;6.22;;;26.60;99.90;;;;;;5032161;28;20222;-76
2022/06/06 09:26:41;;;;;;;6.28;5.78;;;26.10;99.90;;;;;;5032084;28;20190;-76
2022/06/06 09:29:32;;;;;;;5.25;4.85;;;25.50;99.90;;;;;;5030456;28;20181;-76
2022/06/06 09:32:23;;;;;;;6.38;5.88;;;25.60;99.90;;;;;;5040134;28;20832;-76
2022/06/06 09:34:57;;;;;;;6.20;5.80;;;26.50;99.90;;;;;;5032448;28;20249;-76
2022/06/06 09:38:03;;;;;;;5.22;4.82;;;27.30;99.90;;;;;;5046676;28;20186;-74
2022/06/06 09:41:06;;;;;;;8.45;4.85;;;27.80;99.90;;;;;;5050504;28;20193;-76
2022/06/06 09:43:32;;;;;;;4.28;4.05;;;28.40;99.90;;;;;;5050569;28;20640;-76
2022/06/06 09:46:28;;;;;;;8.07;7.43;;;28.40;99.80;;;;;;5050453;28;20174;-76
2022/06/06 09:49:09;;;;;;;7.70;7.22;;;28.50;97.60;;;;;;5050830;28;20210;-76
2022/06/06 09:51:57;;;;;;;9.35;8.63;;;28.50;97.80;;;;;;5047025;28;20174;-75
2022/06/06 10:01:02;;;;;;;7.47;7.18;;;28.00;96.80;;;;;;5031323;28;20183;-78
2022/06/06 10:03:51;;;;;;;8.13;7.75;;;27.70;97.40;;;;;;5032301;28;20207;-76
2022/06/06 10:06:41;;;;;;;7.70;7.30;;;27.10;97.40;;;;;;5030952;28;20277;-76
2022/06/06 10:09:25;;;;;;;4.35;4.15;;;27.00;98.20;;;;;;5031153;28;20183;-76
2022/06/06 10:12:17;;;;;;;5.45;4.55;;;27.00;97.90;;;;;;5031481;28;20186;-76
2022/06/06 10:15:09;;;;;;;6.15;5.63;;;26.70;98.90;;;;;;5031223;28;20210;-76
2022/06/06 10:18:05;;;;;;;3.75;3.53;;;27.30;96.20;;;;;;5029817;28;20221;-76
2022/06/06 10:20:37;;;;;;;7.25;4.60;;;27.00;98.70;;;;;;5050368;28;20179;-76
2022/06/06 10:23:26;;;;;;;5.70;5.32;;;26.40;99.90;;;;;;5051188;28;20715;-76
2022/06/06 10:26:25;;;;;;;5.40;4.90;;;25.70;99.90;;;;;;5051299;28;20182;-76
2022/06/06 10:29:09;;;;;;;4.78;4.38;;;25.10;99.90;;;;;;5051022;28;20610;-76
2022/06/06 10:31:51;;;;;;;5.80;5.43;;;24.70;99.90;;;;;;5051324;28;20186;-76
2022/06/06 10:34:52;;;;;;;5.43;5.20;;;24.60;99.90;;;;;;5031136;28;20666;-76
2022/06/06 10:37:34;;;;;;;7.80;5.85;;;24.50;99.90;;;;;;5032663;28;20185;-75
2022/06/06 10:40:18;;;;;;;4.38;4.00;;;25.40;99.90;;;;;;5033667;28;20667;-75
2022/06/06 10:42:50;;;;;;;10.18;5.75;;;26.80;97.90;;;;;;5040243;28;20183;-77
2022/06/06 10:45:31;;;;;;;7.63;7.13;;;27.80;97.40;;;;;;5038252;28;20203;-77
2022/06/06 10:48:16;;;;;;;6.95;6.47;;;28.20;94.30;;;;;;5039724;28;20194;-76
2022/06/06 10:54:30;;;;;;;7.40;6.70;;;26.60;94.80;;;;;;5056644;28;20289;-77
2022/06/06 10:57:13;;;;;;;5.00;4.70;;;26.00;96.20;;;;;;5052116;28;20187;-77
2022/06/06 11:00:00;;;;;;;6.50;6.05;;;27.10;95.20;;;;;;5052356;28;20627;-77
2022/06/06 11:02:54;;;;;;;6.85;6.53;;;28.20;92.20;;;;;;5052484;28;20183;-77
2022/06/06 11:05:48;;;;;;;8.63;8.23;;;28.00;92.30;;;;;;5035389;28;20211;-77
2022/06/06 11:08:13;;;;;;;8.13;7.72;;;27.40;91.90;;;;;;5034749;28;20179;-76
2022/06/06 11:11:13;;;;;;;7.78;7.18;;;27.10;92.00;;;;;;5035877;28;20266;-75
2022/06/06 11:14:02;;;;;;;9.82;9.02;;;26.90;93.80;;;;;;5033952;28;20218;-76
2022/06/06 11:16:47;;;;;;;12.32;11.25;;;26.70;94.10;;;;;;5056504;28;20189;-76
2022/06/06 11:19:19;;;;;;;9.57;8.95;;;26.80;94.00;;;;;;5054213;28;20260;-76
2022/06/06 11:22:12;;;;;;;5.85;5.55;;;27.90;93.50;;;;;;5054235;28;20179;-77
2022/06/06 11:24:48;;;;;;;9.23;8.77;;;28.60;91.20;;;;;;5054446;28;20206;-75
2022/06/06 11:27:35;;;;;;;9.55;8.95;;;28.70;90.20;;;;;;5054199;28;20190;-76
2022/06/06 11:30:26;;;;;;;12.32;11.75;;;28.60;90.00;;;;;;5054180;28;20194;-77
2022/06/06 11:33:30;;;;;;;20.30;19.10;;;29.20;88.50;;;;;;5035539;28;20183;-85
2022/06/06 11:36:26;;;;;;;15.13;14.32;;;31.00;89.80;;;;;;5035891;28;20198;-82
2022/06/06 11:39:25;;;;;;;19.27;18.23;;;32.40;80.00;;;;;;5034130;28;20183;-82
2022/06/06 11:42:13;;;;;;;10.13;9.63;;;32.60;73.80;;;;;;5034556;28;20187;-82
2022/06/06 11:45:06;;;;;;;5.63;5.38;;;33.00;70.70;;;;;;5035791;28;20210;-79
2022/06/06 11:47:51;;;;;;;23.75;22.58;;;33.40;63.80;;;;;;5033478;28;20172;-81
2022/06/06 11:50:46;;;;;;;5.85;5.45;;;33.30;59.70;;;;;;5034156;28;20178;-81
2022/06/06 11:53:30;;;;;;;14.40;13.73;;;32.80;65.50;;;;;;5041232;28;20202;-79
2022/06/06 11:56:43;;;;;;;5.45;5.15;;;31.30;63.20;;;;;;5032277;28;20214;-77
2022/06/06 11:59:45;;;;;;;5.32;4.95;;;31.20;62.50;;;;;;5030968;28;20179;-76
2022/06/06 12:02:47;;;;;;;5.53;5.25;;;29.80;64.30;;;;;;5014529;28;20193;-78
2022/06/06 12:05:49;;;;;;;14.68;13.77;;;28.80;68.50;;;;;;5033443;28;20225;-76
2022/06/06 12:08:37;;;;;;;33.35;31.80;;;27.90;73.40;;;;;;5032871;28;20183;-78
2022/06/06 12:11:46;;;;;;;56.10;53.33;;;26.90;75.50;;;;;;5043688;28;20551;-77
2022/06/06 12:14:27;;;;;;;48.13;45.85;;;26.30;77.40;;;;;;5042673;28;20215;-77
2022/06/06 12:17:21;;;;;;;12.77;12.07;;;26.30;77.80;;;;;;5032880;28;20933;-77
2022/06/06 12:19:49;;;;;;;10.35;9.75;;;26.30;80.90;;;;;;5037375;28;20190;-77
2022/06/06 12:22:45;;;;;;;12.43;11.73;;;26.30;84.00;;;;;;5048554;28;20179;-77
2022/06/06 12:25:41;;;;;;;11.07;10.10;;;26.30;84.00;;;;;;5052328;28;20937;-77
2022/06/06 12:28:31;;;;;;;10.90;10.20;;;26.20;81.70;;;;;;5050726;28;20182;-78
2022/06/06 12:31:03;;;;;;;10.90;10.25;;;26.30;82.70;;;;;;5053061;28;20241;-79
2022/06/06 12:33:43;;;;;;;12.13;11.52;;;26.30;82.50;;;;;;5052599;28;20703;-80
2022/06/06 12:36:18;;;;;;;7.00;6.60;;;26.00;83.70;;;;;;5052908;28;20182;-77
2022/06/06 12:38:44;;;;;;;5.78;5.28;;;25.90;87.00;;;;;;5052271;28;20661;-78
2022/06/06 12:41:29;;;;;;;6.93;6.45;;;25.90;86.70;;;;;;5052582;28;20236;-78
2022/06/06 12:44:02;;;;;;;8.20;7.80;;;25.70;87.30;;;;;;5034394;28;20206;-78
2022/06/06 12:46:55;;;;;;;6.15;5.75;;;25.40;90.10;;;;;;5034556;28;20618;-78
2022/06/06 12:49:59;;;;;;;6.70;6.20;;;25.10;85.90;;;;;;5031573;28;20182;-78
2022/06/06 12:52:40;;;;;;;5.60;5.20;;;25.10;86.50;;;;;;5032209;28;20182;-76
2022/06/06 12:57:51;;;;;;;9.27;8.88;;;25.90;87.60;;;;;;5031790;28;20183;-76
2022/06/06 13:01:37;;;;;;;6.55;6.07;;;26.70;85.60;;;;;;5031812;28;20187;-77
2022/06/06 13:03:31;;;;;;;6.22;5.93;;;28.00;83.40;;;;;;5031604;28;20271;-77
2022/06/06 13:06:08;;;;;;;30.70;29.20;;;29.70;79.50;;;;;;5041380;28;20178;-77
2022/06/06 13:08:58;;;;;;;15.15;14.38;;;30.70;70.80;;;;;;5051181;28;20178;-76
2022/06/06 13:11:40;;;;;;;16.08;15.27;;;31.70;70.40;;;;;;5050532;28;20874;-77
2022/06/06 13:14:09;;;;;;;5.70;5.50;;;32.70;66.70;;;;;;5049441;28;20656;-76
2022/06/06 13:17:21;;;;;;;4.72;3.53;;;33.10;62.10;;;;;;5050277;28;20182;-77
2022/06/06 13:20:04;;;;;;;9.35;8.88;;;33.30;60.90;;;;;;5042215;28;20187;-76
2022/06/06 13:23:01;;;;;;;10.05;9.43;;;32.80;59.60;;;;;;5031776;28;20616;-76
2022/06/06 13:25:58;;;;;;;4.03;3.80;;;31.80;61.00;;;;;;5049071;28;20248;-76
2022/06/06 13:28:29;;;;;;;3.25;3.05;;;30.80;62.10;;;;;;5051318;28;20284;-77
2022/06/06 13:31:21;;;;;;;3.22;3.13;;;30.50;64.70;;;;;;5050201;28;20190;-77
2022/06/06 13:34:19;;;;;;;3.85;3.60;;;30.60;63.50;;;;;;5047897;28;20286;-76
2022/06/06 13:36:47;;;;;;;9.23;8.65;;;30.20;64.60;;;;;;5043325;28;20190;-77
2022/06/06 13:39:25;;;;;;;11.77;11.18;;;29.60;65.50;;;;;;5048732;28;20264;-77
2022/06/06 13:42:04;;;;;;;17.00;16.00;;;29.00;67.60;;;;;;5050938;28;20312;-77
2022/06/06 13:45:01;;;;;;;20.67;19.60;;;28.60;68.00;;;;;;5050088;28;20396;-76
2022/06/06 13:47:53;;;;;;;29.33;27.85;;;28.20;68.30;;;;;;5049622;28;20217;-76
2022/06/06 13:50:30;;;;;;;28.95;27.55;;;27.50;68.30;;;;;;5029256;28;20195;-77
2022/06/06 13:53:23;;;;;;;39.25;37.35;;;27.10;70.80;;;;;;5031182;28;20186;-76
2022/06/06 13:56:32;;;;;;;53.88;51.22;;;26.70;72.90;;;;;;5031115;28;20321;-76
2022/06/06 13:59:21;;;;;;;41.28;39.33;;;26.60;74.80;;;;;;5031155;28;20556;-75
2022/06/06 14:02:14;;;;;;;10.70;10.20;;;26.40;74.30;;;;;;5031502;28;20708;-76
2022/06/06 14:05:02;;;;;;;7.07;6.78;;;26.20;79.50;;;;;;5047745;28;20210;-76
2022/06/06 14:08:15;;;;;;;10.98;10.40;;;25.90;82.00;;;;;;5051547;28;20187;-78
2022/06/06 14:10:53;;;;;;;11.65;8.52;;;25.60;84.50;;;;;;5038456;28;20197;-78
2022/06/06 14:13:48;;;;;;;10.02;9.48;;;25.10;84.30;;;;;;5061925;28;20185;-78
2022/06/06 14:16:44;;;;;;;4.63;4.35;;;24.80;86.40;;;;;;5051930;28;20187;-81
2022/06/06 14:19:18;;;;;;;3.85;3.65;;;24.50;85.30;;;;;;5053101;28;20190;-80
2022/06/06 14:22:03;;;;;;;5.07;4.88;;;24.20;83.30;;;;;;5081303;28;20189;-79
2022/06/06 14:24:32;;;;;;;6.38;5.97;;;24.10;84.90;;;;;;5075805;28;20197;-79
2022/06/06 14:27:03;;;;;;;7.32;6.93;;;24.10;84.00;;;;;;5072752;28;20234;-80
2022/06/06 14:29:33;;;;;;;7.25;6.95;;;24.00;84.80;;;;;;5073712;28;20181;-81
2022/06/06 14:32:22;;;;;;;9.02;8.63;;;23.90;83.30;;;;;;5043978;28;20179;-80
2022/06/06 14:34:51;;;;;;;8.63;8.23;;;24.10;84.60;;;;;;5034998;28;20218;-80
2022/06/06 14:37:23;;;;;;;9.55;9.05;;;24.20;84.10;;;;;;5037159;28;20217;-80
2022/06/06 14:40:01;;;;;;;5.90;5.60;;;24.30;85.40;;;;;;5036466;28;20237;-79
2022/06/06 14:42:31;;;;;;;8.00;7.60;;;24.60;87.50;;;;;;5037472;28;20179;-80
2022/06/06 14:45:21;;;;;;;4.68;4.47;;;24.80;84.30;;;;;;5043184;28;20248;-80
2022/06/06 14:47:57;;;;;;;4.63;4.32;;;24.90;82.40;;;;;;5051379;28;20206;-80
2022/06/06 14:51:08;;;;;;;3.88;3.67;;;25.00;82.60;;;;;;5056141;28;20182;-80
2022/06/06 14:53:21;;;;;;;3.80;3.60;;;25.00;82.40;;;;;;5059288;28;20244;-80
2022/06/06 14:55:51;;;;;;;4.18;3.78;;;25.10;83.40;;;;;;5056060;28;20210;-81
2022/06/06 14:58:23;;;;;;;5.30;5.00;;;25.30;82.60;;;;;;5061173;28;20638;-79
2022/06/06 15:00:57;;;;;;;6.70;6.40;;;25.40;82.40;;;;;;5046518;28;20189;-79
2022/06/06 15:03:51;;;;;;;5.18;4.88;;;25.30;82.50;;;;;;5046332;28;20210;-79
2022/06/06 15:06:20;;;;;;;4.40;4.00;;;24.90;83.60;;;;;;5040618;28;20179;-78
2022/06/06 15:08:59;;;;;;;4.35;4.15;;;25.00;85.70;;;;;;5042360;28;20171;-79
2022/06/06 15:11:29;;;;;;;4.82;4.43;;;25.00;84.80;;;;;;5036300;28;20187;-79
2022/06/06 15:13:58;;;;;;;5.32;4.93;;;25.20;85.30;;;;;;5055461;23;20254;-78
2022/06/06 15:16:29;;;;;;;7.18;6.82;;;25.60;84.40;;;;;;5036908;28;20210;-78
2022/06/06 15:18:58;;;;;;;7.25;6.80;;;26.00;82.90;;;;;;5043695;28;20197;-77
2022/06/06 15:21:28;;;;;;;7.57;7.20;;;26.10;80.90;;;;;;5041013;28;20206;-78
2022/06/06 15:24:17;;;;;;;8.55;8.15;;;26.40;79.10;;;;;;5030106;28;20231;-78
2022/06/06 15:26:55;;;;;;;8.52;8.13;;;26.40;79.70;;;;;;5017743;28;20191;-76
2022/06/06 15:29:41;;;;;;;8.10;7.60;;;26.10;79.70;;;;;;5016840;28;20187;-78
2022/06/06 15:32:14;;;;;;;9.05;8.23;;;25.70;78.60;;;;;;5018271;28;20215;-78
2022/06/06 15:35:01;;;;;;;8.27;7.78;;;25.40;82.20;;;;;;5015470;28;20223;-77
2022/06/06 15:37:45;;;;;;;6.82;6.43;;;25.20;81.40;;;;;;5017379;28;20235;-78
2022/06/06 15:40:26;;;;;;;7.30;6.93;;;25.10;80.50;;;;;;5017769;28;20183;-79
2022/06/06 15:43:28;;;;;;;6.57;6.28;;;25.10;83.30;;;;;;5016923;28;20647;-79
2022/06/06 15:45:54;;;;;;;6.28;5.97;;;25.10;82.70;;;;;;4994889;28;20747;-77
2022/06/06 15:48:43;;;;;;;5.70;5.40;;;25.00;83.80;;;;;;5006888;28;20192;-77
2022/06/06 15:51:15;;;;;;;5.07;4.88;;;25.10;83.10;;;;;;5016051;28;20261;-77
2022/06/06 15:53:50;;;;;;;5.93;5.53;;;25.20;83.70;;;;;;5014467;28;20199;-78
2022/06/06 15:56:32;;;;;;;5.07;4.80;;;25.00;83.90;;;;;;5014018;28;20203;-77
2022/06/06 15:59:18;;;;;;;5.40;5.03;;;25.00;84.90;;;;;;5013893;28;20186;-77
2022/06/06 16:02:02;;;;;;;4.45;4.20;;;24.90;83.20;;;;;;5014035;28;20268;-77
2022/06/06 16:04:36;;;;;;;4.25;4.05;;;24.60;82.30;;;;;;5012916;28;20239;-77
2022/06/06 16:07:45;;;;;;;3.55;3.25;;;24.50;84.30;;;;;;5013887;28;20277;-77
2022/06/06 16:10:31;;;;;;;5.32;5.13;;;24.40;85.40;;;;;;4994455;28;20651;-77
2022/06/06 16:13:34;;;;;;;5.05;4.82;;;24.10;84.70;;;;;;5014988;28;20188;-77
2022/06/06 16:16:17;;;;;;;9.10;8.40;;;24.00;83.90;;;;;;5014186;28;20238;-77
2022/06/06 16:19:24;;;;;;;9.23;8.70;;;24.00;87.80;;;;;;5014858;28;20278;-77
2022/06/06 16:22:12;;;;;;;6.65;6.35;;;24.10;87.50;;;;;;4987831;28;20184;-72
2022/06/06 16:25:04;;;;;;;7.82;7.43;;;24.20;86.90;;;;;;4990181;28;20219;-72
2022/06/06 16:27:59;;;;;;;5.43;5.03;;;24.30;87.80;;;;;;4956643;28;20832;-73
2022/06/06 16:30:52;;;;;;;4.78;4.38;;;24.30;88.60;;;;;;5015790;28;20218;-74
2022/06/06 16:33:26;;;;;;;4.88;4.68;;;24.00;89.00;;;;;;5009535;28;20196;-74
2022/06/06 16:35:57;;;;;;;5.45;5.10;;;23.70;90.00;;;;;;5012914;28;20207;-73
2022/06/06 16:38:29;;;;;;;12.30;11.60;;;23.50;90.80;;;;;;5021916;28;20180;-74
2022/06/06 16:40:58;;;;;;;9.60;9.10;;;23.20;91.20;;;;;;5020945;28;20220;-74
2022/06/06 16:49:34;;;;;;;4.93;4.47;;;23.30;92.40;;;;;;5012395;28;20184;-74
2022/06/06 16:52:08;;;;;;;5.25;4.85;;;23.30;92.20;;;;;;5012497;28;20267;-74
2022/06/06 16:54:47;;;;;;;4.65;4.43;;;23.20;92.20;;;;;;5010758;28;20207;-74
2022/06/06 16:57:39;;;;;;;5.38;5.18;;;23.20;91.50;;;;;;5012649;28;20558;-74
2022/06/06 17:00:07;;;;;;;7.07;6.43;;;23.10;91.60;;;;;;5011146;28;20560;-74
2022/06/06 17:02:41;;;;;;;9.57;9.07;;;23.00;91.70;;;;;;5011115;28;20179;-74
2022/06/06 17:08:27;;;;;;;8.38;7.72;;;22.70;92.30;;;;;;5012268;28;20194;-74
2022/06/06 17:11:07;;;;;;;6.35;6.07;;;22.60;93.00;;;;;;5000207;28;20564;-74
2022/06/06 17:13:37;;;;;;;4.85;4.53;;;22.60;93.30;;;;;;5011613;28;20222;-74
2022/06/06 17:16:28;;;;;;;4.78;3.90;;;22.60;93.80;;;;;;5012283;28;20190;-74
2022/06/06 17:19:12;;;;;;;5.57;4.50;;;22.50;94.10;;;;;;5011758;28;20656;-74
2022/06/06 17:21:42;;;;;;;3.90;3.70;;;22.60;94.20;;;;;;5011859;28;20187;-74
2022/06/06 17:24:30;;;;;;;4.82;3.80;;;22.50;93.60;;;;;;5011490;28;20203;-74
2022/06/06 17:27:16;;;;;;;4.97;4.68;;;22.40;94.20;;;;;;5011337;28;20233;-74
2022/06/06 17:30:10;;;;;;;5.38;5.07;;;22.40;94.60;;;;;;5009894;28;20183;-74
2022/06/06 17:33:04;;;;;;;6.13;5.82;;;22.20;94.60;;;;;;5011715;28;20190;-74
2022/06/06 17:35:47;;;;;;;5.88;5.57;;;22.10;94.80;;;;;;5011840;28;20302;-73
2022/06/06 17:38:31;;;;;;;6.30;5.97;;;22.00;95.10;;;;;;5011219;28;20191;-74
2022/06/06 17:41:26;;;;;;;5.18;4.88;;;21.90;94.90;;;;;;5011886;28;20179;-74